sensor_id;sensor_type;location;lat;lon;timestamp;P1;durP1;ratioP1;P2;durP2;ratioP2
32734;SDS011;19112;51.076;3.706;2024-02-26T00:00:10;7.07;;;2.72;;
32734;SDS011;19112;51.076;3.706;2024-02-26T00:02:37;9.70;;;2.70;;
32734;SDS011;19112;51.076;3.706;2024-02-26T00:05:06;10.55;;;3.10;;
32734;SDS011;19112;51.076;3.706;2024-02-26T00:07:33;7.82;;;3.10;;
32734;SDS011;19112;51.076;3.706;2024-02-26T00:09:59;5.88;;;2.92;;
32734;SDS011;19112;51.076;3.706;2024-02-26T00:12:25;5.85;;;2.95;;
32734;SDS011;19112;51.076;3.706;2024-02-26T00:14:51;5.85;;;2.92;;
32734;SDS011;19112;51.076;3.706;2024-02-26T00:17:18;10.80;;;3.40;;
32734;SDS011;19112;51.076;3.706;2024-02-26T00:19:43;9.23;;;3.05;;
32734;SDS011;19112;51.076;3.706;2024-02-26T00:22:09;5.90;;;2.70;;
32734;SDS011;19112;51.076;3.706;2024-02-26T00:24:35;9.88;;;3.30;;
32734;SDS011;19112;51.076;3.706;2024-02-26T00:27:02;11.15;;;3.08;;
32734;SDS011;19112;51.076;3.706;2024-02-26T00:29:31;10.23;;;3.30;;
32734;SDS011;19112;51.076;3.706;2024-02-26T00:31:57;9.68;;;3.10;;
32734;SDS011;19112;51.076;3.706;2024-02-26T00:34:24;8.07;;;3.53;;
32734;SDS011;19112;51.076;3.706;2024-02-26T00:36:49;9.23;;;3.17;;
32734;SDS011;19112;51.076;3.706;2024-02-26T00:39:15;10.07;;;3.85;;
32734;SDS011;19112;51.076;3.706;2024-02-26T00:41:41;6.40;;;3.05;;
32734;SDS011;19112;51.076;3.706;2024-02-26T00:44:07;9.68;;;3.42;;
32734;SDS011;19112;51.076;3.706;2024-02-26T00:46:33;10.18;;;3.45;;
32734;SDS011;19112;51.076;3.706;2024-02-26T00:48:59;8.20;;;3.30;;
32734;SDS011;19112;51.076;3.706;2024-02-26T00:51:25;9.50;;;3.70;;
32734;SDS011;19112;51.076;3.706;2024-02-26T00:53:54;9.85;;;3.47;;
32734;SDS011;19112;51.076;3.706;2024-02-26T00:56:21;11.50;;;3.67;;
32734;SDS011;19112;51.076;3.706;2024-02-26T00:58:48;9.23;;;3.47;;
32734;SDS011;19112;51.076;3.706;2024-02-26T01:01:15;8.48;;;3.47;;
32734;SDS011;19112;51.076;3.706;2024-02-26T01:03:42;9.70;;;3.60;;
32734;SDS011;19112;51.076;3.706;2024-02-26T01:06:08;9.27;;;3.70;;
32734;SDS011;19112;51.076;3.706;2024-02-26T01:08:35;12.10;;;3.80;;
32734;SDS011;19112;51.076;3.706;2024-02-26T01:11:03;7.57;;;3.35;;
32734;SDS011;19112;51.076;3.706;2024-02-26T01:13:29;14.43;;;4.30;;
32734;SDS011;19112;51.076;3.706;2024-02-26T01:15:56;10.23;;;3.60;;
32734;SDS011;19112;51.076;3.706;2024-02-26T01:18:22;15.45;;;3.53;;
32734;SDS011;19112;51.076;3.706;2024-02-26T01:20:49;7.88;;;3.28;;
32734;SDS011;19112;51.076;3.706;2024-02-26T01:23:17;8.52;;;3.17;;
32734;SDS011;19112;51.076;3.706;2024-02-26T01:25:45;10.55;;;3.70;;
32734;SDS011;19112;51.076;3.706;2024-02-26T01:28:11;10.60;;;3.30;;
32734;SDS011;19112;51.076;3.706;2024-02-26T01:30:36;8.48;;;3.35;;
32734;SDS011;19112;51.076;3.706;2024-02-26T01:33:03;9.57;;;3.33;;
32734;SDS011;19112;51.076;3.706;2024-02-26T01:35:31;10.07;;;3.35;;
32734;SDS011;19112;51.076;3.706;2024-02-26T01:37:57;10.63;;;3.45;;
32734;SDS011;19112;51.076;3.706;2024-02-26T01:40:28;10.35;;;3.25;;
32734;SDS011;19112;51.076;3.706;2024-02-26T01:42:57;13.73;;;3.17;;
32734;SDS011;19112;51.076;3.706;2024-02-26T01:45:23;7.03;;;3.35;;
32734;SDS011;19112;51.076;3.706;2024-02-26T01:47:53;9.93;;;3.08;;
32734;SDS011;19112;51.076;3.706;2024-02-26T01:50:21;10.73;;;4.00;;
32734;SDS011;19112;51.076;3.706;2024-02-26T01:52:50;8.63;;;3.30;;
32734;SDS011;19112;51.076;3.706;2024-02-26T01:55:18;11.45;;;3.40;;
32734;SDS011;19112;51.076;3.706;2024-02-26T01:57:47;9.55;;;3.78;;
32734;SDS011;19112;51.076;3.706;2024-02-26T02:00:16;8.55;;;3.53;;
32734;SDS011;19112;51.076;3.706;2024-02-26T02:02:43;8.43;;;3.67;;
32734;SDS011;19112;51.076;3.706;2024-02-26T02:05:12;6.85;;;3.33;;
32734;SDS011;19112;51.076;3.706;2024-02-26T02:07:39;10.00;;;3.83;;
32734;SDS011;19112;51.076;3.706;2024-02-26T02:10:06;8.38;;;3.35;;
32734;SDS011;19112;51.076;3.706;2024-02-26T02:12:35;12.43;;;3.40;;
32734;SDS011;19112;51.076;3.706;2024-02-26T02:15:03;7.50;;;3.47;;
32734;SDS011;19112;51.076;3.706;2024-02-26T02:17:30;8.63;;;3.13;;
32734;SDS011;19112;51.076;3.706;2024-02-26T02:19:57;7.70;;;3.20;;
32734;SDS011;19112;51.076;3.706;2024-02-26T02:22:25;13.75;;;3.50;;
32734;SDS011;19112;51.076;3.706;2024-02-26T02:24:52;8.93;;;3.47;;
32734;SDS011;19112;51.076;3.706;2024-02-26T02:27:18;11.35;;;3.65;;
32734;SDS011;19112;51.076;3.706;2024-02-26T02:29:46;11.75;;;3.63;;
32734;SDS011;19112;51.076;3.706;2024-02-26T02:32:13;9.93;;;3.95;;
32734;SDS011;19112;51.076;3.706;2024-02-26T02:34:41;10.32;;;3.58;;
32734;SDS011;19112;51.076;3.706;2024-02-26T02:37:06;9.68;;;3.60;;
32734;SDS011;19112;51.076;3.706;2024-02-26T02:39:32;12.40;;;3.70;;
32734;SDS011;19112;51.076;3.706;2024-02-26T02:41:58;10.18;;;3.70;;
32734;SDS011;19112;51.076;3.706;2024-02-26T02:44:24;8.35;;;3.47;;
32734;SDS011;19112;51.076;3.706;2024-02-26T02:46:50;9.65;;;3.72;;
32734;SDS011;19112;51.076;3.706;2024-02-26T02:49:18;8.80;;;3.55;;
32734;SDS011;19112;51.076;3.706;2024-02-26T02:51:44;7.75;;;3.70;;
32734;SDS011;19112;51.076;3.706;2024-02-26T02:54:09;8.80;;;3.42;;
32734;SDS011;19112;51.076;3.706;2024-02-26T02:56:38;12.48;;;3.85;;
32734;SDS011;19112;51.076;3.706;2024-02-26T02:59:06;13.77;;;4.45;;
32734;SDS011;19112;51.076;3.706;2024-02-26T03:01:33;11.80;;;4.57;;
32734;SDS011;19112;51.076;3.706;2024-02-26T03:04:00;9.48;;;4.18;;
32734;SDS011;19112;51.076;3.706;2024-02-26T03:06:26;12.98;;;4.22;;
32734;SDS011;19112;51.076;3.706;2024-02-26T03:08:56;14.15;;;5.28;;
32734;SDS011;19112;51.076;3.706;2024-02-26T03:11:22;14.88;;;5.78;;
32734;SDS011;19112;51.076;3.706;2024-02-26T03:13:48;15.95;;;5.75;;
32734;SDS011;19112;51.076;3.706;2024-02-26T03:16:14;15.10;;;6.28;;
32734;SDS011;19112;51.076;3.706;2024-02-26T03:18:41;13.63;;;6.18;;
32734;SDS011;19112;51.076;3.706;2024-02-26T03:21:09;17.33;;;6.85;;
32734;SDS011;19112;51.076;3.706;2024-02-26T03:23:35;18.65;;;7.65;;
32734;SDS011;19112;51.076;3.706;2024-02-26T03:26:03;20.58;;;7.85;;
32734;SDS011;19112;51.076;3.706;2024-02-26T03:28:29;23.70;;;7.68;;
32734;SDS011;19112;51.076;3.706;2024-02-26T03:30:58;18.80;;;7.80;;
32734;SDS011;19112;51.076;3.706;2024-02-26T03:33:25;18.38;;;7.10;;
32734;SDS011;19112;51.076;3.706;2024-02-26T03:35:50;18.48;;;7.82;;
32734;SDS011;19112;51.076;3.706;2024-02-26T03:38:16;18.80;;;7.70;;
32734;SDS011;19112;51.076;3.706;2024-02-26T03:40:42;16.17;;;7.15;;
32734;SDS011;19112;51.076;3.706;2024-02-26T03:43:08;18.63;;;7.97;;
32734;SDS011;19112;51.076;3.706;2024-02-26T03:45:34;18.88;;;7.63;;
32734;SDS011;19112;51.076;3.706;2024-02-26T03:47:59;17.95;;;7.70;;
32734;SDS011;19112;51.076;3.706;2024-02-26T03:50:25;20.65;;;8.48;;
32734;SDS011;19112;51.076;3.706;2024-02-26T03:52:51;18.63;;;8.45;;
32734;SDS011;19112;51.076;3.706;2024-02-26T03:55:17;18.23;;;8.65;;
32734;SDS011;19112;51.076;3.706;2024-02-26T03:57:46;19.67;;;9.25;;
32734;SDS011;19112;51.076;3.706;2024-02-26T04:00:12;21.55;;;9.25;;
32734;SDS011;19112;51.076;3.706;2024-02-26T04:02:39;20.05;;;9.57;;
32734;SDS011;19112;51.076;3.706;2024-02-26T04:05:09;20.05;;;9.93;;
32734;SDS011;19112;51.076;3.706;2024-02-26T04:07:36;20.65;;;9.15;;
32734;SDS011;19112;51.076;3.706;2024-02-26T04:10:03;23.35;;;10.10;;
32734;SDS011;19112;51.076;3.706;2024-02-26T04:12:33;25.50;;;10.40;;
32734;SDS011;19112;51.076;3.706;2024-02-26T04:14:59;25.10;;;10.48;;
32734;SDS011;19112;51.076;3.706;2024-02-26T04:17:25;22.40;;;10.20;;
32734;SDS011;19112;51.076;3.706;2024-02-26T04:19:50;23.15;;;10.95;;
32734;SDS011;19112;51.076;3.706;2024-02-26T04:22:16;23.23;;;10.75;;
32734;SDS011;19112;51.076;3.706;2024-02-26T04:24:42;24.67;;;11.00;;
32734;SDS011;19112;51.076;3.706;2024-02-26T04:27:08;22.40;;;11.45;;
32734;SDS011;19112;51.076;3.706;2024-02-26T04:29:34;21.52;;;11.15;;
32734;SDS011;19112;51.076;3.706;2024-02-26T04:32:00;25.13;;;10.88;;
32734;SDS011;19112;51.076;3.706;2024-02-26T04:34:25;25.90;;;11.70;;
32734;SDS011;19112;51.076;3.706;2024-02-26T04:36:51;22.50;;;10.55;;
32734;SDS011;19112;51.076;3.706;2024-02-26T04:39:17;25.02;;;11.35;;
32734;SDS011;19112;51.076;3.706;2024-02-26T04:41:43;23.90;;;10.38;;
32734;SDS011;19112;51.076;3.706;2024-02-26T04:44:09;28.55;;;10.65;;
32734;SDS011;19112;51.076;3.706;2024-02-26T04:46:35;21.75;;;10.68;;
32734;SDS011;19112;51.076;3.706;2024-02-26T04:49:01;25.75;;;11.15;;
32734;SDS011;19112;51.076;3.706;2024-02-26T04:51:26;22.02;;;10.77;;
32734;SDS011;19112;51.076;3.706;2024-02-26T04:53:52;21.80;;;10.75;;
32734;SDS011;19112;51.076;3.706;2024-02-26T04:56:20;21.27;;;9.95;;
32734;SDS011;19112;51.076;3.706;2024-02-26T04:58:48;24.15;;;9.20;;
32734;SDS011;19112;51.076;3.706;2024-02-26T05:01:15;20.85;;;9.57;;
32734;SDS011;19112;51.076;3.706;2024-02-26T05:03:42;20.05;;;9.27;;
32734;SDS011;19112;51.076;3.706;2024-02-26T05:06:08;18.60;;;8.57;;
32734;SDS011;19112;51.076;3.706;2024-02-26T05:08:34;20.98;;;8.25;;
32734;SDS011;19112;51.076;3.706;2024-02-26T05:11:01;19.85;;;7.78;;
32734;SDS011;19112;51.076;3.706;2024-02-26T05:13:28;19.98;;;8.50;;
32734;SDS011;19112;51.076;3.706;2024-02-26T05:15:54;19.77;;;7.85;;
32734;SDS011;19112;51.076;3.706;2024-02-26T05:18:24;18.48;;;7.70;;
32734;SDS011;19112;51.076;3.706;2024-02-26T05:20:50;17.85;;;7.75;;
32734;SDS011;19112;51.076;3.706;2024-02-26T05:23:15;19.60;;;7.65;;
32734;SDS011;19112;51.076;3.706;2024-02-26T05:25:42;21.52;;;7.47;;
32734;SDS011;19112;51.076;3.706;2024-02-26T05:28:10;18.88;;;7.07;;
32734;SDS011;19112;51.076;3.706;2024-02-26T05:30:36;18.45;;;7.15;;
32734;SDS011;19112;51.076;3.706;2024-02-26T05:33:05;17.75;;;6.63;;
32734;SDS011;19112;51.076;3.706;2024-02-26T05:35:30;16.92;;;7.07;;
32734;SDS011;19112;51.076;3.706;2024-02-26T05:37:56;16.23;;;7.22;;
32734;SDS011;19112;51.076;3.706;2024-02-26T05:40:23;18.95;;;7.40;;
32734;SDS011;19112;51.076;3.706;2024-02-26T05:42:50;20.35;;;7.70;;
32734;SDS011;19112;51.076;3.706;2024-02-26T05:45:17;21.73;;;8.25;;
32734;SDS011;19112;51.076;3.706;2024-02-26T05:47:43;20.70;;;7.65;;
32734;SDS011;19112;51.076;3.706;2024-02-26T05:50:10;18.33;;;8.00;;
32734;SDS011;19112;51.076;3.706;2024-02-26T05:52:36;20.25;;;8.38;;
32734;SDS011;19112;51.076;3.706;2024-02-26T05:55:05;20.52;;;9.15;;
32734;SDS011;19112;51.076;3.706;2024-02-26T05:57:33;21.23;;;9.35;;
32734;SDS011;19112;51.076;3.706;2024-02-26T05:59:59;22.08;;;9.43;;
32734;SDS011;19112;51.076;3.706;2024-02-26T06:02:31;23.08;;;9.73;;
32734;SDS011;19112;51.076;3.706;2024-02-26T06:04:58;21.27;;;9.35;;
32734;SDS011;19112;51.076;3.706;2024-02-26T06:07:25;22.92;;;9.77;;
32734;SDS011;19112;51.076;3.706;2024-02-26T06:09:51;23.35;;;10.18;;
32734;SDS011;19112;51.076;3.706;2024-02-26T06:12:17;23.40;;;9.57;;
32734;SDS011;19112;51.076;3.706;2024-02-26T06:14:44;24.50;;;9.80;;
32734;SDS011;19112;51.076;3.706;2024-02-26T06:17:10;25.23;;;10.05;;
32734;SDS011;19112;51.076;3.706;2024-02-26T06:19:39;25.63;;;10.55;;
32734;SDS011;19112;51.076;3.706;2024-02-26T06:22:06;20.75;;;9.00;;
32734;SDS011;19112;51.076;3.706;2024-02-26T06:24:32;22.65;;;11.05;;
32734;SDS011;19112;51.076;3.706;2024-02-26T06:26:59;22.83;;;10.38;;
32734;SDS011;19112;51.076;3.706;2024-02-26T06:29:24;23.35;;;10.45;;
32734;SDS011;19112;51.076;3.706;2024-02-26T06:31:51;24.85;;;10.95;;
32734;SDS011;19112;51.076;3.706;2024-02-26T06:34:18;25.42;;;10.40;;
32734;SDS011;19112;51.076;3.706;2024-02-26T06:36:44;23.17;;;9.55;;
32734;SDS011;19112;51.076;3.706;2024-02-26T06:39:10;22.60;;;9.02;;
32734;SDS011;19112;51.076;3.706;2024-02-26T06:41:37;23.70;;;9.85;;
32734;SDS011;19112;51.076;3.706;2024-02-26T06:44:05;22.40;;;9.30;;
32734;SDS011;19112;51.076;3.706;2024-02-26T06:46:31;23.52;;;9.57;;
32734;SDS011;19112;51.076;3.706;2024-02-26T06:48:59;24.67;;;9.73;;
32734;SDS011;19112;51.076;3.706;2024-02-26T06:51:24;21.42;;;9.02;;
32734;SDS011;19112;51.076;3.706;2024-02-26T06:53:51;22.60;;;9.27;;
32734;SDS011;19112;51.076;3.706;2024-02-26T06:56:17;21.52;;;9.73;;
32734;SDS011;19112;51.076;3.706;2024-02-26T06:58:45;21.65;;;9.43;;
32734;SDS011;19112;51.076;3.706;2024-02-26T07:01:12;22.52;;;9.35;;
32734;SDS011;19112;51.076;3.706;2024-02-26T07:03:43;22.52;;;9.43;;
32734;SDS011;19112;51.076;3.706;2024-02-26T07:06:09;21.30;;;9.10;;
32734;SDS011;19112;51.076;3.706;2024-02-26T07:08:35;22.75;;;10.35;;
32734;SDS011;19112;51.076;3.706;2024-02-26T07:11:00;21.95;;;9.35;;
32734;SDS011;19112;51.076;3.706;2024-02-26T07:13:27;22.42;;;10.07;;
32734;SDS011;19112;51.076;3.706;2024-02-26T07:15:53;23.42;;;9.38;;
32734;SDS011;19112;51.076;3.706;2024-02-26T07:18:20;22.42;;;9.50;;
32734;SDS011;19112;51.076;3.706;2024-02-26T07:20:46;24.98;;;10.13;;
32734;SDS011;19112;51.076;3.706;2024-02-26T07:23:13;20.70;;;8.82;;
32734;SDS011;19112;51.076;3.706;2024-02-26T07:25:40;21.45;;;9.10;;
32734;SDS011;19112;51.076;3.706;2024-02-26T07:28:06;20.85;;;9.05;;
32734;SDS011;19112;51.076;3.706;2024-02-26T07:30:33;20.30;;;8.75;;
32734;SDS011;19112;51.076;3.706;2024-02-26T07:33:01;20.05;;;8.30;;
32734;SDS011;19112;51.076;3.706;2024-02-26T07:35:27;22.13;;;9.18;;
32734;SDS011;19112;51.076;3.706;2024-02-26T07:37:53;21.90;;;8.65;;
32734;SDS011;19112;51.076;3.706;2024-02-26T07:40:20;23.80;;;9.50;;
32734;SDS011;19112;51.076;3.706;2024-02-26T07:42:46;21.40;;;8.90;;
32734;SDS011;19112;51.076;3.706;2024-02-26T07:47:42;20.38;;;8.65;;
32734;SDS011;19112;51.076;3.706;2024-02-26T07:50:08;21.85;;;9.32;;
32734;SDS011;19112;51.076;3.706;2024-02-26T07:52:40;23.80;;;9.05;;
32734;SDS011;19112;51.076;3.706;2024-02-26T07:55:06;21.70;;;8.43;;
32734;SDS011;19112;51.076;3.706;2024-02-26T07:57:33;20.67;;;8.60;;
32734;SDS011;19112;51.076;3.706;2024-02-26T08:00:00;20.75;;;8.45;;
32734;SDS011;19112;51.076;3.706;2024-02-26T08:02:26;23.77;;;8.77;;
32734;SDS011;19112;51.076;3.706;2024-02-26T08:04:53;19.50;;;8.48;;
32734;SDS011;19112;51.076;3.706;2024-02-26T08:07:19;19.48;;;8.23;;
32734;SDS011;19112;51.076;3.706;2024-02-26T08:09:46;21.52;;;9.02;;
32734;SDS011;19112;51.076;3.706;2024-02-26T08:12:14;25.38;;;8.18;;
32734;SDS011;19112;51.076;3.706;2024-02-26T08:14:39;18.85;;;7.57;;
32734;SDS011;19112;51.076;3.706;2024-02-26T08:17:05;19.00;;;7.80;;
32734;SDS011;19112;51.076;3.706;2024-02-26T08:19:31;21.80;;;8.85;;
32734;SDS011;19112;51.076;3.706;2024-02-26T08:21:58;20.70;;;7.97;;
32734;SDS011;19112;51.076;3.706;2024-02-26T08:24:28;21.85;;;8.70;;
32734;SDS011;19112;51.076;3.706;2024-02-26T08:29:30;18.58;;;7.25;;
32734;SDS011;19112;51.076;3.706;2024-02-26T08:32:03;19.25;;;8.55;;
32734;SDS011;19112;51.076;3.706;2024-02-26T08:36:56;23.02;;;7.78;;
32734;SDS011;19112;51.076;3.706;2024-02-26T08:39:23;22.90;;;8.43;;
32734;SDS011;19112;51.076;3.706;2024-02-26T08:41:52;20.67;;;8.30;;
32734;SDS011;19112;51.076;3.706;2024-02-26T08:44:18;20.70;;;7.38;;
32734;SDS011;19112;51.076;3.706;2024-02-26T08:46:43;18.23;;;6.70;;
32734;SDS011;19112;51.076;3.706;2024-02-26T08:49:10;23.20;;;8.73;;
32734;SDS011;19112;51.076;3.706;2024-02-26T08:51:41;19.50;;;7.13;;
32734;SDS011;19112;51.076;3.706;2024-02-26T08:54:08;20.48;;;7.30;;
32734;SDS011;19112;51.076;3.706;2024-02-26T08:56:34;20.75;;;7.65;;
32734;SDS011;19112;51.076;3.706;2024-02-26T08:59:00;20.98;;;8.38;;
32734;SDS011;19112;51.076;3.706;2024-02-26T09:01:29;21.50;;;8.30;;
32734;SDS011;19112;51.076;3.706;2024-02-26T09:03:56;19.33;;;7.47;;
32734;SDS011;19112;51.076;3.706;2024-02-26T09:06:22;20.88;;;8.40;;
32734;SDS011;19112;51.076;3.706;2024-02-26T09:08:48;23.85;;;8.80;;
32734;SDS011;19112;51.076;3.706;2024-02-26T09:11:15;21.25;;;8.50;;
32734;SDS011;19112;51.076;3.706;2024-02-26T09:13:41;22.50;;;9.55;;
32734;SDS011;19112;51.076;3.706;2024-02-26T09:16:07;22.75;;;9.57;;
32734;SDS011;19112;51.076;3.706;2024-02-26T09:18:33;22.75;;;8.85;;
32734;SDS011;19112;51.076;3.706;2024-02-26T09:21:07;22.75;;;9.43;;
32734;SDS011;19112;51.076;3.706;2024-02-26T09:23:33;22.42;;;8.80;;
32734;SDS011;19112;51.076;3.706;2024-02-26T09:26:00;22.27;;;9.55;;
32734;SDS011;19112;51.076;3.706;2024-02-26T09:28:31;23.80;;;9.48;;
32734;SDS011;19112;51.076;3.706;2024-02-26T09:31:02;22.77;;;9.05;;
32734;SDS011;19112;51.076;3.706;2024-02-26T09:33:29;25.83;;;9.63;;
32734;SDS011;19112;51.076;3.706;2024-02-26T09:35:56;23.10;;;9.88;;
32734;SDS011;19112;51.076;3.706;2024-02-26T09:38:21;24.77;;;9.90;;
32734;SDS011;19112;51.076;3.706;2024-02-26T09:40:48;26.75;;;10.93;;
32734;SDS011;19112;51.076;3.706;2024-02-26T09:43:15;23.50;;;10.32;;
32734;SDS011;19112;51.076;3.706;2024-02-26T09:45:46;24.92;;;10.82;;
32734;SDS011;19112;51.076;3.706;2024-02-26T09:48:15;26.13;;;11.10;;
32734;SDS011;19112;51.076;3.706;2024-02-26T09:50:43;27.73;;;11.93;;
32734;SDS011;19112;51.076;3.706;2024-02-26T09:53:12;27.05;;;12.60;;
32734;SDS011;19112;51.076;3.706;2024-02-26T09:55:42;30.95;;;12.15;;
32734;SDS011;19112;51.076;3.706;2024-02-26T09:58:08;27.05;;;11.80;;
32734;SDS011;19112;51.076;3.706;2024-02-26T10:00:38;26.23;;;11.25;;
32734;SDS011;19112;51.076;3.706;2024-02-26T10:03:06;27.30;;;11.43;;
32734;SDS011;19112;51.076;3.706;2024-02-26T10:05:38;29.25;;;10.95;;
32734;SDS011;19112;51.076;3.706;2024-02-26T10:08:08;30.55;;;12.13;;
32734;SDS011;19112;51.076;3.706;2024-02-26T10:10:37;31.15;;;12.77;;
32734;SDS011;19112;51.076;3.706;2024-02-26T10:13:07;32.35;;;12.52;;
32734;SDS011;19112;51.076;3.706;2024-02-26T10:15:36;29.65;;;12.73;;
32734;SDS011;19112;51.076;3.706;2024-02-26T10:18:09;29.73;;;13.18;;
32734;SDS011;19112;51.076;3.706;2024-02-26T10:20:36;28.30;;;11.93;;
32734;SDS011;19112;51.076;3.706;2024-02-26T10:23:08;30.52;;;12.40;;
32734;SDS011;19112;51.076;3.706;2024-02-26T10:28:22;29.17;;;12.40;;
32734;SDS011;19112;51.076;3.706;2024-02-26T10:30:48;28.50;;;11.32;;
32734;SDS011;19112;51.076;3.706;2024-02-26T10:33:18;31.77;;;12.90;;
32734;SDS011;19112;51.076;3.706;2024-02-26T10:35:48;29.98;;;10.73;;
32734;SDS011;19112;51.076;3.706;2024-02-26T10:38:16;31.80;;;12.70;;
32734;SDS011;19112;51.076;3.706;2024-02-26T10:40:45;28.13;;;12.15;;
32734;SDS011;19112;51.076;3.706;2024-02-26T10:43:14;31.48;;;12.85;;
32734;SDS011;19112;51.076;3.706;2024-02-26T10:45:41;31.08;;;12.73;;
32734;SDS011;19112;51.076;3.706;2024-02-26T10:48:14;34.92;;;13.90;;
32734;SDS011;19112;51.076;3.706;2024-02-26T10:50:42;33.17;;;13.82;;
32734;SDS011;19112;51.076;3.706;2024-02-26T10:53:12;34.80;;;13.93;;
32734;SDS011;19112;51.076;3.706;2024-02-26T10:56:08;33.50;;;14.32;;
32734;SDS011;19112;51.076;3.706;2024-02-26T10:58:35;32.45;;;13.35;;
32734;SDS011;19112;51.076;3.706;2024-02-26T11:01:08;33.53;;;13.25;;
32734;SDS011;19112;51.076;3.706;2024-02-26T11:03:35;34.38;;;12.98;;
32734;SDS011;19112;51.076;3.706;2024-02-26T11:06:08;36.85;;;14.57;;
32734;SDS011;19112;51.076;3.706;2024-02-26T11:08:41;37.55;;;15.43;;
32734;SDS011;19112;51.076;3.706;2024-02-26T11:11:11;37.42;;;15.75;;
32734;SDS011;19112;51.076;3.706;2024-02-26T11:13:47;38.70;;;16.23;;
32734;SDS011;19112;51.076;3.706;2024-02-26T11:16:19;36.22;;;14.95;;
32734;SDS011;19112;51.076;3.706;2024-02-26T11:21:17;43.78;;;17.23;;
32734;SDS011;19112;51.076;3.706;2024-02-26T11:23:55;36.03;;;16.25;;
32734;SDS011;19112;51.076;3.706;2024-02-26T11:26:21;42.03;;;17.13;;
32734;SDS011;19112;51.076;3.706;2024-02-26T11:28:52;41.60;;;16.75;;
32734;SDS011;19112;51.076;3.706;2024-02-26T11:31:24;35.75;;;15.95;;
32734;SDS011;19112;51.076;3.706;2024-02-26T11:33:55;39.55;;;15.55;;
32734;SDS011;19112;51.076;3.706;2024-02-26T11:36:25;37.78;;;15.93;;
32734;SDS011;19112;51.076;3.706;2024-02-26T11:41:22;38.63;;;16.73;;
32734;SDS011;19112;51.076;3.706;2024-02-26T11:46:33;32.72;;;14.88;;
32734;SDS011;19112;51.076;3.706;2024-02-26T11:51:58;36.10;;;15.40;;
32734;SDS011;19112;51.076;3.706;2024-02-26T11:54:45;31.67;;;13.32;;
32734;SDS011;19112;51.076;3.706;2024-02-26T11:57:28;29.73;;;12.85;;
32734;SDS011;19112;51.076;3.706;2024-02-26T12:00:12;29.77;;;14.07;;
32734;SDS011;19112;51.076;3.706;2024-02-26T12:02:44;27.20;;;12.77;;
32734;SDS011;19112;51.076;3.706;2024-02-26T12:05:25;31.70;;;12.53;;
32734;SDS011;19112;51.076;3.706;2024-02-26T12:07:54;26.17;;;10.70;;
32734;SDS011;19112;51.076;3.706;2024-02-26T12:10:33;26.80;;;10.70;;
32734;SDS011;19112;51.076;3.706;2024-02-26T12:13:17;25.67;;;10.45;;
32734;SDS011;19112;51.076;3.706;2024-02-26T12:15:54;25.90;;;9.93;;
32734;SDS011;19112;51.076;3.706;2024-02-26T12:18:22;25.67;;;10.93;;
32734;SDS011;19112;51.076;3.706;2024-02-26T12:21:04;26.52;;;11.43;;
32734;SDS011;19112;51.076;3.706;2024-02-26T12:23:32;25.67;;;10.85;;
32734;SDS011;19112;51.076;3.706;2024-02-26T12:26:03;29.83;;;13.40;;
32734;SDS011;19112;51.076;3.706;2024-02-26T12:28:32;27.75;;;12.68;;
32734;SDS011;19112;51.076;3.706;2024-02-26T12:30:58;27.30;;;13.13;;
32734;SDS011;19112;51.076;3.706;2024-02-26T12:33:25;28.85;;;12.30;;
32734;SDS011;19112;51.076;3.706;2024-02-26T12:35:53;26.77;;;11.95;;
32734;SDS011;19112;51.076;3.706;2024-02-26T12:38:19;30.75;;;11.85;;
32734;SDS011;19112;51.076;3.706;2024-02-26T12:40:45;28.50;;;12.57;;
32734;SDS011;19112;51.076;3.706;2024-02-26T12:43:14;28.63;;;12.07;;
32734;SDS011;19112;51.076;3.706;2024-02-26T12:45:44;26.33;;;11.45;;
32734;SDS011;19112;51.076;3.706;2024-02-26T12:48:14;28.02;;;11.63;;
32734;SDS011;19112;51.076;3.706;2024-02-26T12:50:44;26.90;;;12.60;;
32734;SDS011;19112;51.076;3.706;2024-02-26T12:53:12;26.67;;;12.18;;
32734;SDS011;19112;51.076;3.706;2024-02-26T12:55:38;24.30;;;10.27;;
32734;SDS011;19112;51.076;3.706;2024-02-26T12:58:05;23.50;;;10.27;;
32734;SDS011;19112;51.076;3.706;2024-02-26T13:00:31;23.73;;;10.02;;
32734;SDS011;19112;51.076;3.706;2024-02-26T13:02:57;22.48;;;9.93;;
32734;SDS011;19112;51.076;3.706;2024-02-26T13:05:25;25.38;;;10.00;;
32734;SDS011;19112;51.076;3.706;2024-02-26T13:07:51;21.70;;;9.13;;
32734;SDS011;19112;51.076;3.706;2024-02-26T13:10:18;22.90;;;10.43;;
32734;SDS011;19112;51.076;3.706;2024-02-26T13:12:45;23.35;;;9.57;;
32734;SDS011;19112;51.076;3.706;2024-02-26T13:15:19;24.80;;;9.52;;
32734;SDS011;19112;51.076;3.706;2024-02-26T13:17:47;21.35;;;8.73;;
32734;SDS011;19112;51.076;3.706;2024-02-26T13:20:25;21.00;;;8.43;;
32734;SDS011;19112;51.076;3.706;2024-02-26T13:23:02;21.92;;;8.80;;
32734;SDS011;19112;51.076;3.706;2024-02-26T13:25:27;24.85;;;10.65;;
32734;SDS011;19112;51.076;3.706;2024-02-26T13:28:04;23.85;;;9.95;;
32734;SDS011;19112;51.076;3.706;2024-02-26T13:30:55;24.17;;;8.95;;
32734;SDS011;19112;51.076;3.706;2024-02-26T13:33:26;24.23;;;9.45;;
32734;SDS011;19112;51.076;3.706;2024-02-26T13:35:55;22.75;;;8.98;;
32734;SDS011;19112;51.076;3.706;2024-02-26T13:38:26;22.40;;;8.85;;
32734;SDS011;19112;51.076;3.706;2024-02-26T13:40:54;25.52;;;10.32;;
32734;SDS011;19112;51.076;3.706;2024-02-26T13:43:24;21.55;;;8.70;;
32734;SDS011;19112;51.076;3.706;2024-02-26T13:45:51;21.73;;;8.95;;
32734;SDS011;19112;51.076;3.706;2024-02-26T13:48:18;22.92;;;9.70;;
32734;SDS011;19112;51.076;3.706;2024-02-26T13:50:47;22.67;;;8.50;;
32734;SDS011;19112;51.076;3.706;2024-02-26T13:53:14;21.65;;;9.60;;
32734;SDS011;19112;51.076;3.706;2024-02-26T13:55:40;21.02;;;9.05;;
32734;SDS011;19112;51.076;3.706;2024-02-26T13:58:08;20.48;;;8.73;;
32734;SDS011;19112;51.076;3.706;2024-02-26T14:00:36;22.05;;;9.73;;
32734;SDS011;19112;51.076;3.706;2024-02-26T14:03:02;23.33;;;9.75;;
32734;SDS011;19112;51.076;3.706;2024-02-26T14:05:28;19.88;;;8.10;;
32734;SDS011;19112;51.076;3.706;2024-02-26T14:07:55;22.13;;;8.15;;
32734;SDS011;19112;51.076;3.706;2024-02-26T14:10:21;23.40;;;9.27;;
32734;SDS011;19112;51.076;3.706;2024-02-26T14:12:47;21.98;;;9.68;;
32734;SDS011;19112;51.076;3.706;2024-02-26T14:15:12;24.08;;;9.73;;
32734;SDS011;19112;51.076;3.706;2024-02-26T14:17:38;23.73;;;9.45;;
32734;SDS011;19112;51.076;3.706;2024-02-26T14:20:04;19.23;;;7.63;;
32734;SDS011;19112;51.076;3.706;2024-02-26T14:22:32;23.08;;;8.85;;
32734;SDS011;19112;51.076;3.706;2024-02-26T14:24:58;19.92;;;8.50;;
32734;SDS011;19112;51.076;3.706;2024-02-26T14:27:24;23.15;;;9.10;;
32734;SDS011;19112;51.076;3.706;2024-02-26T14:29:50;21.95;;;9.18;;
32734;SDS011;19112;51.076;3.706;2024-02-26T14:32:17;24.13;;;9.65;;
32734;SDS011;19112;51.076;3.706;2024-02-26T14:34:43;21.83;;;8.52;;
32734;SDS011;19112;51.076;3.706;2024-02-26T14:37:11;21.65;;;9.48;;
32734;SDS011;19112;51.076;3.706;2024-02-26T14:39:38;22.77;;;9.52;;
32734;SDS011;19112;51.076;3.706;2024-02-26T14:42:04;22.35;;;9.07;;
32734;SDS011;19112;51.076;3.706;2024-02-26T14:44:32;24.10;;;10.10;;
32734;SDS011;19112;51.076;3.706;2024-02-26T14:46:58;29.15;;;10.95;;
32734;SDS011;19112;51.076;3.706;2024-02-26T14:49:23;23.35;;;11.07;;
32734;SDS011;19112;51.076;3.706;2024-02-26T14:51:49;25.23;;;9.00;;
32734;SDS011;19112;51.076;3.706;2024-02-26T14:54:15;25.35;;;11.02;;